Swift Ace — C6XB8 — position and weather

sailwx.info

Track history (hours):
 
Tides and Currents Weather Stations Pressure Air Temp Water Temp Dewpoint Dewpoint Depression Visibility Wind Speed Wind Dir Waves Ship Positions

Swift Ace

Last reported at 2014-Nov-27 23:21 UTC. Time now 2014-Nov-28 04:17 UTC.
Position N 01°12' E 103°38'.

Length 200 m; draft 8.9 m.

Type: Cargo ship. MMSI: 311004900.

Date/timePositionNaut miles runAvg speedWind from/ knotsBaromVisibWave heightAir tempDewpointWater temp
2014-Nov-27 23:21N 01°12' E 103°38'8 9.7
2014-Nov-27 22:33N 01°17' E 103°45'1 0.3
2014-Nov-27 19:28N 01°17' E 103°45'0 0.0
2014-Nov-27 18:16N 01°17' E 103°45'0 0.0
2014-Nov-27 16:10N 01°17' E 103°45'0 0.0
2014-Nov-27 15:28N 01°17' E 103°45'0 0.0
2014-Nov-27 14:28N 01°17' E 103°45'0 0.0
2014-Nov-27 11:07N 01°17' E 103°45'0 0.0
2014-Nov-27 05:28N 01°17' E 103°45'5 5.4
2014-Nov-27 04:33N 01°13' E 103°48'9 9.3
2014-Nov-27 03:32N 01°15' E 103°57'1312.8
2014-Nov-27 02:32N 01°17' E 104°10'1712.7
2014-Nov-27 01:13N 01°23' E 104°26'  
2014-Nov-23 21:33N 21°57' E 113°52'1312.6
2014-Nov-23 20:33N 22°09' E 113°48'1413.9
2014-Nov-23 19:33N 22°23' E 113°46'1414.3
2014-Nov-23 18:33N 22°37' E 113°42'1211.5
2014-Nov-23 17:33N 22°47' E 113°37'1010.4
2014-Nov-23 16:33N 22°57' E 113°33'4 3.2
2014-Nov-23 15:19N 23°01' E 113°32'0 0.0
2014-Nov-23 14:31N 23°01' E 113°32'0 0.0
2014-Nov-23 13:31N 23°01' E 113°32'0 0.0
2014-Nov-23 12:31N 23°01' E 113°32'0 0.0
2014-Nov-23 11:31N 23°01' E 113°32'0 0.0
2014-Nov-23 10:19N 23°01' E 113°32'0 0.6
2014-Nov-23 09:33N 23°00' E 113°32'8 8.3
2014-Nov-23 08:33N 22°52' E 113°34'1010.3
2014-Nov-23 07:33N 22°44' E 113°40'1111.5
2014-Nov-23 06:33N 22°33' E 113°44'1312.9
2014-Nov-23 05:33N 22°20' E 113°48'1111.3
2014-Nov-23 04:33N 22°09' E 113°47'8 8.1
2014-Nov-23 03:33N 22°03' E 113°53'1 1.2
2014-Nov-23 02:26N 22°04' E 113°54'0 0.0
2014-Nov-23 01:32N 22°04' E 113°54'0 0.0
2014-Nov-23 00:14N 22°04' E 113°54'0 0.0
2014-Nov-22 23:32N 22°04' E 113°54'0 0.0
2014-Nov-22 22:26N 22°04' E 113°54'0 0.0
2014-Nov-22 21:32N 22°04' E 113°54'0 0.0
2014-Nov-22 20:32N 22°04' E 113°54'0 0.0
2014-Nov-22 19:32N 22°04' E 113°54'0 0.0
2014-Nov-22 18:14N 22°04' E 113°54'0 0.0
2014-Nov-22 17:26N 22°04' E 113°54'0 0.0
2014-Nov-22 16:14N 22°04' E 113°54'0 0.0
2014-Nov-22 15:26N 22°04' E 113°54'0 0.0
2014-Nov-22 14:26N 22°04' E 113°54'0 0.0
2014-Nov-22 13:20N 22°04' E 113°54'0 0.0
2014-Nov-22 12:32N 22°04' E 113°54'0 0.0
2014-Nov-22 11:20N 22°04' E 113°54'0 0.0
2014-Nov-22 10:32N 22°04' E 113°54'0 0.2
2014-Nov-22 09:33N 22°04' E 113°54'7 6.6
2014-Nov-22 08:31N 21°58' E 113°56'16214.2
2014-Nov-21 21:07N 22°39' E 116°45'1415.5
2014-Nov-21 20:11N 22°45' E 116°60'3115.6
2014-Nov-21 18:14N 22°56' E 117°30'1115.3
2014-Nov-21 17:33N 23°02' E 117°40'1615.9
2014-Nov-21 16:33N 23°15' E 117°50'1615.7
2014-Nov-21 15:33N 23°27' E 117°59'1515.0
2014-Nov-21 14:33N 23°40' E 118°08'1514.8
2014-Nov-21 13:33N 23°52' E 118°18'1413.7
2014-Nov-21 12:32N 24°06' E 118°19'1312.9
2014-Nov-21 11:32N 24°17' E 118°11'8 8.2
2014-Nov-21 10:33N 24°24' E 118°07'5 4.9
2014-Nov-21 09:26N 24°27' E 118°02'0 0.0
2014-Nov-21 08:12N 24°27' E 118°02'0 0.0
2014-Nov-21 07:26N 24°27' E 118°02'0 0.0
2014-Nov-21 06:10N 24°27' E 118°02'0 0.0
2014-Nov-21 05:32N 24°27' E 118°02'0 0.0
2014-Nov-21 04:25N 24°27' E 118°02'0 0.0
2014-Nov-21 03:30N 24°26' E 118°02'8 8.6
2014-Nov-21 02:32N 24°22' E 118°09'1313.4
2014-Nov-21 01:33N 24°11' E 118°18'1514.3
2014-Nov-21 00:31N 24°17' E 118°33'1414.1
2014-Nov-20 23:33N 24°23' E 118°46'1513.8
2014-Nov-20 22:28N 24°30' E 119°01'1213.5
2014-Nov-20 21:33N 24°37' E 119°12'  
Track history (hours):
 
Tides and Currents Weather Stations Pressure Air Temp Water Temp Dewpoint Dewpoint Depression Visibility Wind Speed Wind Dir Waves Ship Positions

Swift Ace

Last reported at 2014-Nov-27 23:21 UTC. Time now 2014-Nov-28 04:17 UTC.
Position N 01°12' E 103°38'.

Length 200 m; draft 8.9 m.

Type: Cargo ship. MMSI: 311004900.

Date/timePositionNaut miles runAvg speedWind from/ knotsBaromVisibWave heightAir tempDewpointWater temp
2014-Nov-27 23:21N 01°12' E 103°38'8 9.7
2014-Nov-27 22:33N 01°17' E 103°45'1 0.3
2014-Nov-27 19:28N 01°17' E 103°45'0 0.0
2014-Nov-27 18:16N 01°17' E 103°45'0 0.0
2014-Nov-27 16:10N 01°17' E 103°45'0 0.0
2014-Nov-27 15:28N 01°17' E 103°45'0 0.0
2014-Nov-27 14:28N 01°17' E 103°45'0 0.0
2014-Nov-27 11:07N 01°17' E 103°45'0 0.0
2014-Nov-27 05:28N 01°17' E 103°45'5 5.4
2014-Nov-27 04:33N 01°13' E 103°48'9 9.3
2014-Nov-27 03:32N 01°15' E 103°57'1312.8
2014-Nov-27 02:32N 01°17' E 104°10'1712.7
2014-Nov-27 01:13N 01°23' E 104°26'  
2014-Nov-23 21:33N 21°57' E 113°52'1312.6
2014-Nov-23 20:33N 22°09' E 113°48'1413.9
2014-Nov-23 19:33N 22°23' E 113°46'1414.3
2014-Nov-23 18:33N 22°37' E 113°42'1211.5
2014-Nov-23 17:33N 22°47' E 113°37'1010.4
2014-Nov-23 16:33N 22°57' E 113°33'4 3.2
2014-Nov-23 15:19N 23°01' E 113°32'0 0.0
2014-Nov-23 14:31N 23°01' E 113°32'0 0.0
2014-Nov-23 13:31N 23°01' E 113°32'0 0.0
2014-Nov-23 12:31N 23°01' E 113°32'0 0.0
2014-Nov-23 11:31N 23°01' E 113°32'0 0.0
2014-Nov-23 10:19N 23°01' E 113°32'0 0.6
2014-Nov-23 09:33N 23°00' E 113°32'8 8.3
2014-Nov-23 08:33N 22°52' E 113°34'1010.3
2014-Nov-23 07:33N 22°44' E 113°40'1111.5
2014-Nov-23 06:33N 22°33' E 113°44'1312.9
2014-Nov-23 05:33N 22°20' E 113°48'1111.3
2014-Nov-23 04:33N 22°09' E 113°47'8 8.1
2014-Nov-23 03:33N 22°03' E 113°53'1 1.2
2014-Nov-23 02:26N 22°04' E 113°54'0 0.0
2014-Nov-23 01:32N 22°04' E 113°54'0 0.0
2014-Nov-23 00:14N 22°04' E 113°54'0 0.0
2014-Nov-22 23:32N 22°04' E 113°54'0 0.0
2014-Nov-22 22:26N 22°04' E 113°54'0 0.0
2014-Nov-22 21:32N 22°04' E 113°54'0 0.0
2014-Nov-22 20:32N 22°04' E 113°54'0 0.0
2014-Nov-22 19:32N 22°04' E 113°54'0 0.0
2014-Nov-22 18:14N 22°04' E 113°54'0 0.0
2014-Nov-22 17:26N 22°04' E 113°54'0 0.0
2014-Nov-22 16:14N 22°04' E 113°54'0 0.0
2014-Nov-22 15:26N 22°04' E 113°54'0 0.0
2014-Nov-22 14:26N 22°04' E 113°54'0 0.0
2014-Nov-22 13:20N 22°04' E 113°54'0 0.0
2014-Nov-22 12:32N 22°04' E 113°54'0 0.0
2014-Nov-22 11:20N 22°04' E 113°54'0 0.0
2014-Nov-22 10:32N 22°04' E 113°54'0 0.2
2014-Nov-22 09:33N 22°04' E 113°54'7 6.6
2014-Nov-22 08:31N 21°58' E 113°56'16214.2
2014-Nov-21 21:07N 22°39' E 116°45'1415.5
2014-Nov-21 20:11N 22°45' E 116°60'3115.6
2014-Nov-21 18:14N 22°56' E 117°30'1115.3
2014-Nov-21 17:33N 23°02' E 117°40'1615.9
2014-Nov-21 16:33N 23°15' E 117°50'1615.7
2014-Nov-21 15:33N 23°27' E 117°59'1515.0
2014-Nov-21 14:33N 23°40' E 118°08'1514.8
2014-Nov-21 13:33N 23°52' E 118°18'1413.7
2014-Nov-21 12:32N 24°06' E 118°19'1312.9
2014-Nov-21 11:32N 24°17' E 118°11'8 8.2
2014-Nov-21 10:33N 24°24' E 118°07'5 4.9
2014-Nov-21 09:26N 24°27' E 118°02'0 0.0
2014-Nov-21 08:12N 24°27' E 118°02'0 0.0
2014-Nov-21 07:26N 24°27' E 118°02'0 0.0
2014-Nov-21 06:10N 24°27' E 118°02'0 0.0
2014-Nov-21 05:32N 24°27' E 118°02'0 0.0
2014-Nov-21 04:25N 24°27' E 118°02'0 0.0
2014-Nov-21 03:30N 24°26' E 118°02'8 8.6
2014-Nov-21 02:32N 24°22' E 118°09'1313.4
2014-Nov-21 01:33N 24°11' E 118°18'1514.3
2014-Nov-21 00:31N 24°17' E 118°33'1414.1
2014-Nov-20 23:33N 24°23' E 118°46'1513.8
2014-Nov-20 22:28N 24°30' E 119°01'1213.5
2014-Nov-20 21:33N 24°37' E 119°12'  

Dump ship's entire track history